createdAt,value
2019-02-20T00:02:19.644Z,56.06
2019-02-20T00:04:51.508Z,55.86
2019-02-20T00:07:23.158Z,55.52
2019-02-20T00:09:54.965Z,56.66
2019-02-20T00:12:26.823Z,56.60
2019-02-20T00:14:58.432Z,57.06
2019-02-20T00:17:31.212Z,57.32
2019-02-20T00:20:02.872Z,58.27
2019-02-20T00:22:40.319Z,58.40
2019-02-20T00:25:07.834Z,58.78
2019-02-20T00:27:39.439Z,59.01
2019-02-20T00:30:11.431Z,59.08
2019-02-20T00:32:42.965Z,59.44
2019-02-20T00:35:14.342Z,58.91
2019-02-20T00:37:46.207Z,59.81
2019-02-20T00:40:20.121Z,59.43
2019-02-20T00:42:52.699Z,59.94
2019-02-20T00:46:10.954Z,60.42
2019-02-20T00:48:56.219Z,60.75
2019-02-20T00:51:53.369Z,60.99
2019-02-20T00:54:25.105Z,61.77
2019-02-20T00:56:58.934Z,61.41
2019-02-20T00:59:32.744Z,61.38
2019-02-20T01:02:04.395Z,61.76
2019-02-20T01:04:36.259Z,61.71
2019-02-20T01:07:07.859Z,62.80
2019-02-20T01:09:42.421Z,62.59
2019-02-20T01:12:14.161Z,62.90
2019-02-20T01:15:05.443Z,63.33
2019-02-20T01:17:39.220Z,63.84
2019-02-20T01:20:10.976Z,64.69
2019-02-20T01:22:42.615Z,64.15
2019-02-20T01:25:13.975Z,64.57
2019-02-20T01:27:45.325Z,64.72
2019-02-20T01:30:16.635Z,65.34
2019-02-20T01:32:50.187Z,65.07
2019-02-20T01:35:22.149Z,65.12
2019-02-20T01:37:53.895Z,66.05
2019-02-20T01:40:25.657Z,65.25
2019-02-20T01:42:57.305Z,64.84
2019-02-20T01:45:38.287Z,65.42
2019-02-20T01:48:10.244Z,66.09
2019-02-20T01:50:42.004Z,66.13
2019-02-20T01:53:13.597Z,66.24
2019-02-20T01:55:47.269Z,66.06
2019-02-20T01:58:18.681Z,66.50
2019-02-20T02:00:50.373Z,66.51
2019-02-20T02:03:22.154Z,66.75
2019-02-20T02:06:13.143Z,67.05
2019-02-20T02:08:44.906Z,66.88
2019-02-20T02:11:16.554Z,67.38
2019-02-20T02:13:47.880Z,67.36
2019-02-20T02:16:19.228Z,68.17
2019-02-20T02:18:50.563Z,68.29
2019-02-20T02:21:22.010Z,67.93
2019-02-20T02:23:54.959Z,68.14
2019-02-20T02:26:26.343Z,68.35
2019-02-20T02:28:57.626Z,68.02
2019-02-20T02:31:31.054Z,68.87
2019-02-20T02:34:02.788Z,68.65
2019-02-20T02:36:49.704Z,67.84
2019-02-20T02:39:21.154Z,67.56
2019-02-20T02:41:52.866Z,68.13
2019-02-20T02:44:24.275Z,68.65
2019-02-20T02:46:56.690Z,68.39
2019-02-20T02:49:30.341Z,68.32
2019-02-20T02:52:02.098Z,68.35
2019-02-20T02:54:33.747Z,68.31
2019-02-20T02:57:05.608Z,68.92
2019-02-20T02:59:37.229Z,69.06
2019-02-20T03:02:08.616Z,69.73
2019-02-20T03:04:42.112Z,70.30
2019-02-20T03:07:13.868Z,71.03
2019-02-20T03:09:46.013Z,71.10
2019-02-20T03:12:18.164Z,70.29
2019-02-20T03:14:49.824Z,69.68
2019-02-20T03:17:21.152Z,70.25
2019-02-20T03:19:52.518Z,70.34
2019-02-20T03:22:23.813Z,70.21
2019-02-20T03:24:55.162Z,70.06
2019-02-20T03:27:27.628Z,70.64
2019-02-20T03:30:01.499Z,70.17
2019-02-20T03:32:34.426Z,71.13
2019-02-20T03:35:06.697Z,70.50
2019-02-20T03:37:38.458Z,71.54
2019-02-20T03:40:12.985Z,71.47
2019-02-20T03:42:44.813Z,71.46
2019-02-20T03:45:18.644Z,71.19
2019-02-20T03:47:50.270Z,70.74
2019-02-20T03:50:24.414Z,70.55
2019-02-20T03:52:56.071Z,70.61
2019-02-20T03:55:27.952Z,70.27
2019-02-20T03:58:01.091Z,70.41
2019-02-20T04:00:34.417Z,71.24
2019-02-20T04:03:07.864Z,71.42
2019-02-20T04:05:38.968Z,71.71
2019-02-20T04:08:10.688Z,70.71
2019-02-20T04:10:44.553Z,71.66
2019-02-20T04:13:15.882Z,71.77
2019-02-20T04:15:55.722Z,71.60
2019-02-20T04:18:27.678Z,72.65
2019-02-20T04:20:59.450Z,73.47
2019-02-20T04:23:36.897Z,73.06
2019-02-20T04:26:09.889Z,73.26
2019-02-20T04:28:41.205Z,73.08
2019-02-20T04:31:12.189Z,72.45
2019-02-20T04:33:46.017Z,72.79
2019-02-20T04:36:17.672Z,72.46
2019-02-20T04:38:49.470Z,73.54
2019-02-20T04:41:21.187Z,73.53
2019-02-20T04:43:52.594Z,74.17
2019-02-20T04:46:23.993Z,74.30
2019-02-20T04:48:57.515Z,73.56
2019-02-20T04:51:29.146Z,74.46
2019-02-20T04:54:00.826Z,74.09
2019-02-20T04:56:32.179Z,74.11
2019-02-20T04:59:03.678Z,73.74
2019-02-20T05:01:35.048Z,73.60
2019-02-20T05:04:06.386Z,74.57
2019-02-20T05:06:37.957Z,73.36
2019-02-20T05:09:12.833Z,73.58
2019-02-20T05:11:44.257Z,74.12
2019-02-20T05:14:17.788Z,74.18
2019-02-20T05:16:49.113Z,74.51
2019-02-20T05:19:20.419Z,73.85
2019-02-20T05:21:51.780Z,73.51
2019-02-20T05:24:25.085Z,73.25
2019-02-20T05:26:58.573Z,73.36
2019-02-20T05:29:30.448Z,71.96
2019-02-20T05:32:09.155Z,71.41
2019-02-20T05:34:40.788Z,71.66
2019-02-20T05:37:12.135Z,70.70
2019-02-20T05:39:43.591Z,68.72
2019-02-20T05:42:14.855Z,68.37
2019-02-20T05:44:46.090Z,67.16
2019-02-20T05:47:17.459Z,68.52
2019-02-20T05:49:50.920Z,67.86
2019-02-20T05:52:22.497Z,68.74
2019-02-20T05:54:53.771Z,68.25
2019-02-20T06:01:43.629Z,66.54
2019-02-20T06:04:14.889Z,65.95
2019-02-20T06:06:46.126Z,65.50
2019-02-20T06:09:17.415Z,62.85
2019-02-20T06:11:48.620Z,61.72
2019-02-20T06:14:19.905Z,56.84
2019-02-20T06:16:53.326Z,54.82
2019-02-20T06:19:24.514Z,57.13
2019-02-20T06:37:33.326Z,57.95
2019-02-20T06:40:09.310Z,55.34
2019-02-20T06:42:42.926Z,56.39
2019-02-20T06:45:14.504Z,58.96
2019-02-20T06:47:45.727Z,58.23
2019-02-20T06:50:17.340Z,55.87
2019-02-20T06:52:50.862Z,50.56
2019-02-20T06:55:22.324Z,47.53
2019-02-20T06:57:53.721Z,52.16
2019-02-20T07:00:27.581Z,52.53
2019-02-20T07:03:05.811Z,53.60
2019-02-20T07:05:42.367Z,53.00
2019-02-20T07:08:34.910Z,52.36
2019-02-20T07:11:37.118Z,54.77
2019-02-20T07:14:42.194Z,54.94
2019-02-20T07:17:36.607Z,55.37
2019-02-20T07:20:46.380Z,58.88
2019-02-20T07:23:35.959Z,58.92
2019-02-20T07:26:16.263Z,60.01
2019-02-20T07:29:07.103Z,57.93
2019-02-20T07:31:38.761Z,60.97
2019-02-20T07:34:15.941Z,64.46
2019-02-20T07:36:51.247Z,64.19
2019-02-20T07:39:27.030Z,65.06
2019-02-20T07:41:58.166Z,65.81
2019-02-20T07:44:30.854Z,65.83
2019-02-20T07:47:05.985Z,66.26
2019-02-20T07:49:42.982Z,65.84
2019-02-20T07:52:14.833Z,65.82
2019-02-20T07:54:46.281Z,66.81
2019-02-20T07:57:19.954Z,65.98
2019-02-20T07:59:51.592Z,67.11
2019-02-20T08:02:24.888Z,67.43
2019-02-20T08:04:56.325Z,67.72
2019-02-20T08:07:27.459Z,67.25
2019-02-20T08:09:58.623Z,67.60
2019-02-20T08:12:29.795Z,67.82
2019-02-20T08:15:01.007Z,68.40
2019-02-20T08:17:32.233Z,68.21
2019-02-20T08:20:03.751Z,68.93
2019-02-20T08:22:35.066Z,68.35
2019-02-20T08:25:07.787Z,68.28
2019-02-20T08:27:41.971Z,67.77
2019-02-20T08:30:13.433Z,67.70
2019-02-20T08:33:04.114Z,68.29
2019-02-20T08:35:37.305Z,68.73
2019-02-20T08:38:08.917Z,69.31
2019-02-20T08:40:40.696Z,69.46
2019-02-20T08:43:12.355Z,69.09
2019-02-20T08:45:43.897Z,68.12
2019-02-20T08:48:15.535Z,69.04
2019-02-20T08:50:50.802Z,70.36
2019-02-20T08:53:25.657Z,69.36
2019-02-20T08:55:57.135Z,68.26
2019-02-20T08:58:28.392Z,68.47
2019-02-20T09:01:01.124Z,67.79
2019-02-20T09:03:32.417Z,68.52
2019-02-20T09:06:03.606Z,69.22
2019-02-20T09:08:34.797Z,69.35
2019-02-20T09:11:06.107Z,68.97
2019-02-20T09:13:38.576Z,70.56
2019-02-20T09:16:22.316Z,69.66
2019-02-20T09:18:54.178Z,69.56
2019-02-20T09:22:14.354Z,68.25
2019-02-20T09:24:46.133Z,68.64
2019-02-20T09:27:19.819Z,69.97
2019-02-20T09:29:52.502Z,69.45
2019-02-20T09:32:24.200Z,69.17
2019-02-20T09:34:55.347Z,68.25
2019-02-20T09:37:26.874Z,69.66
2019-02-20T09:39:58.132Z,69.50
2019-02-20T09:42:29.478Z,71.01
2019-02-20T09:45:00.725Z,70.13
2019-02-20T09:47:32.122Z,68.80
2019-02-20T09:50:08.377Z,69.78
2019-02-20T09:52:39.761Z,69.77
2019-02-20T09:55:13.279Z,68.72
2019-02-20T09:57:44.834Z,68.68
2019-02-20T10:00:20.753Z,68.51
2019-02-20T10:02:52.506Z,69.08
2019-02-20T10:05:26.030Z,68.62
2019-02-20T10:07:57.197Z,68.67
2019-02-20T10:10:28.601Z,67.83
2019-02-20T10:13:02.729Z,67.38
2019-02-20T10:15:33.916Z,67.55
2019-02-20T10:18:07.610Z,67.29
2019-02-20T10:20:39.240Z,67.16
2019-02-20T10:23:10.966Z,68.70
2019-02-20T10:25:49.118Z,68.58
2019-02-20T10:28:22.401Z,68.19
2019-02-20T10:30:56.206Z,67.84
2019-02-20T10:33:27.470Z,67.84
2019-02-20T10:35:59.108Z,67.19
2019-02-20T10:38:30.648Z,67.87
2019-02-20T10:41:02.437Z,68.18
2019-02-20T10:43:33.778Z,67.18
2019-02-20T10:46:05.614Z,67.28
2019-02-20T10:48:37.353Z,67.60
2019-02-20T10:51:09.051Z,67.11
2019-02-20T10:53:42.033Z,67.90
2019-02-20T10:56:13.485Z,68.16
2019-02-20T10:58:45.260Z,67.87
2019-02-20T11:01:17.015Z,67.81
2019-02-20T11:03:48.666Z,67.21
2019-02-20T11:06:20.046Z,67.57
2019-02-20T11:08:51.226Z,67.17
2019-02-20T11:11:22.567Z,67.93
2019-02-20T11:14:03.030Z,67.49
2019-02-20T11:16:43.234Z,67.73
2019-02-20T11:19:15.695Z,67.77
2019-02-20T11:21:47.076Z,67.52
2019-02-20T11:24:18.292Z,67.91
2019-02-20T11:26:54.849Z,68.66
2019-02-20T11:29:23.370Z,67.18
2019-02-20T11:31:56.562Z,66.98
2019-02-20T11:34:38.531Z,66.76
2019-02-20T11:37:05.271Z,66.56
2019-02-20T11:39:40.070Z,67.01
2019-02-20T11:42:11.374Z,66.80
2019-02-20T11:44:43.845Z,66.57
2019-02-20T11:47:15.494Z,66.64
2019-02-20T11:49:47.139Z,66.71
2019-02-20T11:52:21.968Z,66.08
2019-02-20T11:54:53.234Z,66.50
2019-02-20T11:57:36.118Z,65.51
2019-02-20T12:00:10.778Z,65.29
2019-02-20T12:02:42.515Z,64.87
2019-02-20T12:05:14.237Z,66.91
2019-02-20T12:07:45.823Z,67.76
2019-02-20T12:10:24.237Z,66.61
2019-02-20T12:12:55.706Z,66.89
2019-02-20T12:15:34.164Z,67.47
2019-02-20T12:18:05.472Z,67.72
2019-02-20T12:20:37.035Z,67.24
2019-02-20T12:23:08.511Z,68.12
2019-02-20T12:25:40.013Z,67.84
2019-02-20T12:28:17.095Z,68.31
2019-02-20T12:30:50.396Z,67.77
2019-02-20T12:33:23.893Z,67.38
2019-02-20T12:35:55.768Z,67.23
2019-02-20T12:38:31.453Z,66.65
2019-02-20T12:41:02.752Z,65.54
2019-02-20T12:43:38.659Z,65.01
2019-02-20T12:46:10.045Z,66.59
2019-02-20T12:48:41.892Z,67.07
2019-02-20T12:53:51.017Z,66.08
2019-02-20T12:56:43.753Z,65.41
2019-02-20T12:59:11.590Z,65.70
2019-02-20T13:01:43.231Z,65.42
2019-02-20T13:04:24.734Z,66.01
2019-02-20T13:06:59.439Z,66.95
2019-02-20T13:09:28.827Z,66.03
2019-02-20T13:12:00.671Z,65.63
2019-02-20T13:14:33.055Z,66.14
2019-02-20T13:17:04.342Z,65.91
2019-02-20T13:19:35.679Z,66.60
2019-02-20T13:22:06.983Z,66.85
2019-02-20T13:24:45.469Z,67.30
2019-02-20T13:27:22.805Z,67.21
2019-02-20T13:29:54.530Z,66.75
2019-02-20T13:32:26.268Z,66.96
2019-02-20T13:34:59.538Z,66.85
2019-02-20T13:37:35.090Z,66.93
2019-02-20T13:40:08.898Z,66.85
2019-02-20T13:42:40.547Z,67.50
2019-02-20T13:45:12.105Z,67.83
2019-02-20T13:47:43.560Z,67.59
2019-02-20T13:50:15.434Z,67.47
2019-02-20T13:52:52.568Z,67.38
2019-02-20T13:55:34.223Z,66.97
2019-02-20T13:58:05.191Z,67.54
2019-02-20T14:00:36.484Z,67.74
2019-02-20T14:03:08.234Z,67.65
2019-02-20T14:05:39.948Z,67.38
2019-02-20T14:08:13.917Z,67.55
2019-02-20T14:10:45.681Z,67.02
2019-02-20T14:13:21.158Z,66.88
2019-02-20T14:15:52.770Z,66.72
2019-02-20T14:18:24.431Z,67.00
2019-02-20T14:20:56.190Z,67.36
2019-02-20T14:23:27.748Z,66.87
2019-02-20T14:25:59.456Z,66.88
2019-02-20T14:28:31.806Z,67.21
2019-02-20T14:31:07.129Z,66.78
2019-02-20T14:33:38.863Z,67.63
2019-02-20T14:36:10.142Z,67.35
2019-02-20T14:38:41.564Z,67.51
2019-02-20T14:41:12.961Z,67.24
2019-02-20T14:43:49.898Z,67.16
2019-02-20T14:46:27.317Z,67.76
2019-02-20T14:48:58.994Z,67.46
2019-02-20T14:51:30.757Z,67.68
2019-02-20T14:54:02.159Z,67.73
2019-02-20T14:56:35.534Z,68.24
2019-02-20T14:59:07.027Z,68.09
2019-02-20T15:01:40.895Z,68.03
2019-02-20T15:04:12.668Z,67.85
2019-02-20T15:06:44.217Z,67.90
2019-02-20T15:09:18.484Z,68.55
2019-02-20T15:11:49.885Z,68.29
2019-02-20T15:14:21.481Z,68.45
2019-02-20T15:17:08.554Z,68.54
2019-02-20T15:19:40.322Z,68.28
2019-02-20T15:22:11.957Z,69.11
2019-02-20T15:24:43.287Z,68.87
2019-02-20T15:27:15.163Z,68.79
2019-02-20T15:29:46.688Z,69.07
2019-02-20T15:32:18.059Z,68.91
2019-02-20T15:34:49.496Z,68.82
2019-02-20T15:37:20.905Z,69.47
2019-02-20T15:39:52.575Z,69.63
2019-02-20T15:42:24.000Z,69.74
2019-02-20T15:44:55.620Z,69.91
2019-02-20T15:47:28.336Z,70.09
2019-02-20T15:49:59.869Z,70.12
2019-02-20T15:52:34.479Z,69.53
2019-02-20T15:55:07.471Z,69.43
2019-02-20T15:57:42.024Z,69.99
2019-02-20T16:00:18.972Z,70.08
2019-02-20T16:02:50.757Z,69.96
2019-02-20T16:05:23.558Z,70.09
2019-02-20T16:07:56.754Z,70.16
2019-02-20T16:10:28.343Z,70.01
2019-02-20T16:13:00.067Z,70.68
2019-02-20T16:15:32.390Z,70.56
2019-02-20T16:18:08.828Z,70.63
2019-02-20T16:20:40.471Z,70.62
2019-02-20T16:23:11.955Z,70.96
2019-02-20T16:25:48.152Z,70.60
2019-02-20T16:28:33.554Z,70.79
2019-02-20T16:31:00.785Z,70.76
2019-02-20T16:33:32.883Z,71.14
2019-02-20T16:36:05.498Z,71.64
2019-02-20T16:38:40.137Z,71.18
2019-02-20T16:41:11.914Z,71.35
2019-02-20T16:43:43.588Z,72.15
2019-02-20T16:46:16.962Z,72.34
2019-02-20T16:48:52.613Z,72.11
2019-02-20T16:51:27.645Z,72.04
2019-02-20T16:54:00.553Z,72.48
2019-02-20T16:56:32.284Z,73.14
2019-02-20T16:59:05.146Z,73.67
2019-02-20T17:01:37.064Z,73.44
2019-02-20T17:04:09.500Z,73.32
2019-02-20T17:06:44.072Z,73.58
2019-02-20T17:09:20.017Z,73.26
2019-02-20T17:11:56.435Z,73.78
2019-02-20T17:14:36.579Z,74.17
2019-02-20T17:17:10.789Z,74.18
2019-02-20T17:19:46.903Z,74.22
2019-02-20T17:22:19.768Z,74.40
2019-02-20T17:24:54.000Z,75.23
2019-02-20T17:27:25.484Z,76.18
2019-02-20T17:29:56.862Z,76.02
2019-02-20T17:32:31.161Z,76.49
2019-02-20T17:35:09.089Z,76.44
2019-02-20T17:37:41.831Z,77.25
2019-02-20T17:40:15.302Z,77.33
2019-02-20T17:42:47.183Z,77.64
2019-02-20T17:45:20.219Z,78.75
2019-02-20T17:47:57.302Z,79.65
2019-02-20T17:50:34.358Z,80.78
2019-02-20T17:53:07.236Z,81.39
2019-02-20T17:55:44.248Z,81.56
2019-02-20T17:58:16.424Z,81.81
2019-02-20T18:00:48.934Z,81.97
2019-02-20T18:03:23.688Z,82.33
2019-02-20T18:05:56.556Z,81.29
2019-02-20T18:08:30.479Z,81.31
2019-02-20T18:11:04.620Z,81.55
2019-02-20T18:13:38.459Z,81.22
2019-02-20T18:16:11.263Z,80.68
2019-02-20T18:18:43.413Z,80.37
2019-02-20T18:21:16.755Z,79.27
2019-02-20T18:23:54.571Z,79.38
2019-02-20T18:26:28.676Z,79.21
2019-02-20T18:29:04.603Z,79.46
2019-02-20T18:31:38.305Z,78.99
2019-02-20T18:34:13.070Z,79.30
2019-02-20T18:36:44.379Z,78.90
2019-02-20T18:39:16.660Z,78.64
2019-02-20T18:41:49.717Z,78.88
2019-02-20T18:44:20.716Z,78.91
2019-02-20T18:46:52.924Z,78.58
2019-02-20T18:49:27.356Z,78.50
2019-02-20T18:52:00.199Z,78.81
2019-02-20T18:54:37.003Z,78.83
2019-02-20T18:57:12.981Z,78.32
2019-02-20T18:59:44.817Z,77.86
2019-02-20T19:02:20.727Z,78.21
2019-02-20T19:04:52.565Z,78.31
2019-02-20T19:07:25.377Z,78.33
2019-02-20T19:09:56.967Z,78.81
2019-02-20T19:12:41.852Z,78.78
2019-02-20T19:15:54.461Z,78.64
2019-02-20T19:19:02.698Z,79.30
2019-02-20T19:22:00.771Z,78.95
2019-02-20T19:24:44.521Z,79.30
2019-02-20T19:27:31.191Z,79.74
2019-02-20T19:30:40.036Z,79.54
2019-02-20T19:33:40.787Z,79.28
2019-02-20T19:36:31.833Z,80.01
2019-02-20T19:39:20.219Z,79.13
2019-02-20T19:42:15.677Z,78.98
2019-02-20T19:45:20.494Z,79.28
2019-02-20T19:48:05.485Z,79.97
2019-02-20T19:51:03.719Z,79.89
2019-02-20T19:53:40.825Z,79.23
2019-02-20T19:56:36.803Z,79.35
2019-02-20T19:59:31.282Z,79.44
2019-02-20T20:02:28.589Z,80.21
2019-02-20T20:05:38.735Z,79.63
2019-02-20T20:08:30.786Z,80.43
2019-02-20T20:11:23.449Z,80.00
2019-02-20T20:14:00.704Z,79.09
2019-02-20T20:16:54.780Z,79.21
2019-02-20T20:19:41.310Z,78.63
2019-02-20T20:22:39.461Z,78.87
2019-02-20T20:25:13.071Z,79.21
2019-02-20T20:27:52.543Z,79.30
2019-02-20T20:30:31.381Z,79.24
2019-02-20T20:33:35.147Z,79.08
2019-02-20T20:36:29.016Z,79.10
2019-02-20T20:39:12.491Z,78.60
2019-02-20T20:42:29.468Z,79.14
2019-02-20T20:45:25.111Z,79.37
2019-02-20T20:48:23.761Z,78.99
2019-02-20T20:51:23.281Z,78.83
2019-02-20T20:54:17.952Z,78.58
2019-02-20T20:57:12.935Z,78.83
2019-02-20T20:59:50.270Z,78.82
2019-02-20T21:02:31.268Z,78.20
2019-02-20T21:05:13.785Z,78.68
2019-02-20T21:08:00.467Z,79.19
2019-02-20T21:10:51.769Z,78.30
2019-02-20T21:13:46.691Z,79.13
2019-02-20T21:16:43.621Z,78.54
2019-02-20T21:19:50.206Z,79.02
2019-02-20T21:22:30.136Z,79.57
2019-02-20T21:25:39.425Z,80.24
2019-02-20T21:28:25.730Z,79.91
2019-02-20T21:31:03.092Z,79.62
2019-02-20T21:33:58.806Z,79.86
2019-02-20T21:36:42.090Z,80.12
2019-02-20T21:39:22.491Z,79.74
2019-02-20T21:41:59.982Z,79.29
2019-02-20T21:44:56.989Z,79.56
2019-02-20T21:47:46.814Z,79.73
2019-02-20T21:50:36.594Z,79.27
2019-02-20T21:53:17.161Z,79.27
2019-02-20T21:56:21.835Z,78.66
2019-02-20T21:59:05.836Z,79.19
2019-02-20T22:01:40.773Z,79.17
2019-02-20T22:04:24.394Z,79.00
2019-02-20T22:07:22.987Z,79.26
2019-02-20T22:10:14.006Z,79.73
2019-02-20T22:13:04.980Z,80.06
2019-02-20T22:15:48.508Z,79.19
2019-02-20T22:18:28.770Z,79.79
2019-02-20T22:21:06.202Z,79.60
2019-02-20T22:23:46.756Z,79.92
2019-02-20T22:26:43.447Z,79.67
2019-02-20T22:29:21.043Z,79.72
2019-02-20T22:32:12.238Z,79.59
2019-02-20T22:34:49.598Z,79.51
2019-02-20T22:37:46.820Z,79.71
2019-02-20T22:40:29.575Z,80.24
2019-02-20T22:43:04.354Z,79.53
2019-02-20T22:46:00.893Z,79.56
2019-02-20T22:48:44.231Z,79.95
2019-02-20T22:51:24.535Z,79.97
2019-02-20T22:54:06.364Z,79.30
2019-02-20T22:56:55.795Z,79.69
2019-02-20T22:59:47.364Z,79.77
2019-02-20T23:02:45.980Z,79.45
2019-02-20T23:05:20.400Z,79.60
2019-02-20T23:08:53.718Z,79.72
2019-02-20T23:11:34.085Z,79.81
2019-02-20T23:14:17.466Z,79.55
2019-02-20T23:16:49.344Z,79.25
2019-02-20T23:19:20.647Z,79.24
2019-02-20T23:21:52.014Z,79.04
2019-02-20T23:24:23.263Z,79.63
2019-02-20T23:26:54.501Z,79.94
2019-02-20T23:29:25.748Z,79.41
2019-02-20T23:31:56.976Z,79.55
2019-02-20T23:34:31.164Z,78.99
2019-02-20T23:37:01.264Z,78.85
2019-02-20T23:39:32.621Z,79.03
2019-02-20T23:42:03.983Z,79.21
2019-02-20T23:44:35.352Z,79.01
2019-02-20T23:47:06.666Z,79.01
2019-02-20T23:49:37.963Z,79.15
2019-02-20T23:52:09.216Z,79.36
2019-02-20T23:54:40.557Z,79.34
2019-02-20T23:57:11.801Z,79.15
2019-02-20T23:59:43.102Z,79.23
